Strona główna
METAR-TAF:

METAR-TAF

Lotnisko :

Platforma wiertnicza

Awg-1, Holandia

Szerokość geograficzna: 53-29-30N, Długość geograficzna: 5-56-30E, wysokość: 33 m

Aktualna obserwacja pogody

Raport powstał 26 minut temu, godzina 11:25 UTC
Wiatr 25 kt od południowo-południowy zachód, zmienny między południe i zachodnio-południowy zachód
Temperatura 6°C
Wilgotność 81%
Ciśnienie 1018 hPa
Widzialność 10 km lub więcej

METAR: EHMA 101125Z AUTO 21025KT 180V250 9999 NSC 06/03 Q1018

czas: 12:51 (11:51 UTC)


TAF: brakujący

Obserwacja i prognoza pogody dla ponad 4000 lotnisk (raport METAR i TAF).

Dostępne stacje oznaczono żółtymi i czerwonymi punktami na mapie.

Najedź kursorem aby zobaczyć nazwę stacji.

Kliknij aby zobaczyć obserwacje i prognozy pogody.

Aby zmienić mapę: kliknij na zielony przycisk z czarnym krzyżykiem, aby powiększyć; na zielony przycisk z myślnikiem, aby pomniejszyć; na zielone strzałki, aby przejść do map sąsiednich.


METAR-TAF: